Time;durP1;ratioP1;P1;durP2;ratioP2;P2;SDS_P1;SDS_P2;PMS_P1;PMS_P2;Temp;Humidity;BMP_temperature;BMP_pressure;BME280_temperature;BME280_humidity;BME280_pressure;Samples;Min_cycle;Max_cycle;Signal;HPM_P1;HPM_P2
2024/03/06 00:00:13;;;;;;;68.25;45.67;;;;;;;9.04;83.91;98195.81;4970309;28;20050;-75
2024/03/06 00:02:38;;;;;;;65.30;43.47;;;;;;;8.99;84.63;98193.81;4958488;28;20076;-75
2024/03/06 00:05:04;;;;;;;65.05;43.90;;;;;;;9.01;84.53;98207.00;4964252;28;20786;-75
2024/03/06 00:07:30;;;;;;;63.75;43.85;;;;;;;8.90;84.94;98194.41;5003330;28;20173;-75
2024/03/06 00:09:55;;;;;;;65.50;45.47;;;;;;;8.94;85.03;98211.69;4995477;28;20168;-75
2024/03/06 00:12:20;;;;;;;70.90;46.40;;;;;;;8.80;85.42;98189.63;4969813;28;20037;-75
2024/03/06 00:14:46;;;;;;;73.55;47.00;;;;;;;8.80;84.85;98188.78;4993771;28;20141;-75
2024/03/06 00:17:11;;;;;;;70.97;46.97;;;;;;;8.87;84.89;98202.91;4973686;28;20050;-75
2024/03/06 00:19:37;;;;;;;66.95;45.80;;;;;;;8.92;85.50;98211.94;4973331;28;20091;-74
2024/03/06 00:22:02;;;;;;;66.18;46.42;;;;;;;8.85;84.94;98207.72;4965683;28;20246;-74
2024/03/06 00:24:28;;;;;;;70.30;47.88;;;;;;;8.98;85.16;98226.31;4986599;28;20136;-74
2024/03/06 00:26:53;;;;;;;69.97;46.58;;;;;;;8.74;84.82;98189.75;4989859;28;20033;-74
2024/03/06 00:29:18;;;;;;;69.18;46.03;;;;;;;8.88;85.40;98212.63;4969523;28;20125;-75
2024/03/06 00:31:45;;;;;;;74.07;47.78;;;;;;;8.98;85.14;98229.00;4987922;28;20034;-75
2024/03/06 00:34:13;;;;;;;64.68;45.38;;;;;;;8.80;85.97;98218.34;4983925;28;20481;-75
2024/03/06 00:36:39;;;;;;;70.40;46.97;;;;;;;8.87;85.63;98224.41;5004956;28;20082;-74
2024/03/06 00:39:04;;;;;;;69.65;45.72;;;;;;;8.77;85.11;98216.13;4981088;28;20049;-75
2024/03/06 00:41:30;;;;;;;70.25;47.42;;;;;;;8.78;85.09;98217.75;4993843;28;20022;-75
2024/03/06 00:43:56;;;;;;;70.47;47.17;;;;;;;8.92;85.04;98246.00;5004190;28;20125;-74
2024/03/06 00:46:22;;;;;;;71.40;46.97;;;;;;;8.90;85.31;98248.13;4963897;28;20029;-75
2024/03/06 00:48:47;;;;;;;72.45;49.05;;;;;;;8.77;85.59;98227.69;4989913;28;20045;-74
2024/03/06 00:51:12;;;;;;;69.03;46.45;;;;;;;8.84;85.46;98243.69;4978281;28;20058;-74
2024/03/06 00:53:38;;;;;;;71.55;47.92;;;;;;;8.83;85.36;98242.88;4994806;28;20053;-75
2024/03/06 00:56:03;;;;;;;71.32;48.08;;;;;;;8.87;85.40;98240.53;4993198;28;20502;-75
2024/03/06 00:58:29;;;;;;;72.03;46.33;;;;;;;8.84;85.68;98236.47;4990167;28;20088;-75
2024/03/06 01:00:54;;;;;;;68.57;46.13;;;;;;;8.84;85.02;98235.63;4979198;28;20027;-75
2024/03/06 01:03:20;;;;;;;68.50;45.35;;;;;;;8.82;85.48;98232.38;4998599;28;20137;-76
2024/03/06 01:05:46;;;;;;;70.68;46.53;;;;;;;8.89;85.08;98249.19;4967834;28;20037;-76
2024/03/06 01:08:11;;;;;;;65.57;45.05;;;;;;;8.79;85.31;98224.78;4984191;28;20112;-75
2024/03/06 01:10:36;;;;;;;64.20;42.63;;;;;;;8.92;85.54;98237.97;4978216;28;20511;-75
2024/03/06 01:13:02;;;;;;;64.68;43.80;;;;;;;8.92;85.60;98232.59;4989477;28;20030;-75
2024/03/06 01:15:27;;;;;;;67.88;44.30;;;;;;;8.93;85.16;98231.56;4978660;28;20397;-74
2024/03/06 01:17:53;;;;;;;62.90;43.30;;;;;;;8.93;84.76;98226.19;4973214;28;20050;-76
2024/03/06 01:20:18;;;;;;;65.40;44.00;;;;;;;9.02;84.56;98246.25;4989706;28;20030;-76
2024/03/06 01:22:45;;;;;;;70.30;46.33;;;;;;;8.91;85.03;98233.66;4992294;28;20034;-77
2024/03/06 01:25:11;;;;;;;69.28;45.70;;;;;;;8.96;84.88;98242.63;4999211;28;20161;-76
2024/03/06 01:27:36;;;;;;;62.78;42.58;;;;;;;9.00;84.49;98248.38;4980222;28;20494;-76
2024/03/06 01:30:02;;;;;;;63.78;44.10;;;;;;;8.83;84.92;98220.56;4975232;28;20026;-76
2024/03/06 01:32:27;;;;;;;61.50;41.83;;;;;;;9.08;84.83;98245.31;4963320;28;20034;-76
2024/03/06 01:34:53;;;;;;;57.95;41.22;;;;;;;9.06;84.79;98242.06;4971614;28;20117;-76
2024/03/06 01:37:18;;;;;;;69.15;44.58;;;;;;;9.04;84.43;98244.16;4992786;28;20042;-76
2024/03/06 01:39:43;;;;;;;63.72;42.90;;;;;;;9.14;84.31;98259.69;4972811;28;20112;-76
2024/03/06 01:42:09;;;;;;;65.68;43.17;;;;;;;8.95;84.39;98224.91;4983477;28;20042;-76
2024/03/06 01:44:34;;;;;;;67.28;44.22;;;;;;;9.10;84.23;98254.00;4985601;28;20113;-76
2024/03/06 01:47:00;;;;;;;60.17;41.95;;;;;;;9.08;84.40;98250.69;5006483;28;20477;-76
2024/03/06 01:49:27;;;;;;;60.60;41.28;;;;;;;9.23;84.29;98275.25;4980673;28;20026;-76
2024/03/06 01:51:54;;;;;;;61.97;41.42;;;;;;;9.18;84.35;98269.75;4986154;28;20070;-76
2024/03/06 01:54:19;;;;;;;60.85;41.33;;;;;;;9.20;84.38;98264.13;4984107;28;20413;-76
2024/03/06 01:56:46;;;;;;;66.85;44.28;;;;;;;9.16;84.21;98265.66;4998073;28;20125;-76
2024/03/06 01:59:19;;;;;;;61.13;43.28;;;;;;;9.29;84.17;98284.25;4975641;28;20495;-78
2024/03/06 02:01:45;;;;;;;58.75;41.08;;;;;;;9.22;83.67;98273.59;4994163;28;20041;-76
2024/03/06 02:04:11;;;;;;;63.20;43.70;;;;;;;9.22;84.29;98278.16;4977160;28;20022;-76
2024/03/06 02:06:39;;;;;;;63.05;42.65;;;;;;;9.26;84.13;98276.66;4987966;28;20034;-76
2024/03/06 02:09:04;;;;;;;59.03;41.50;;;;;;;9.19;83.88;98273.25;4976437;28;20659;-75
2024/03/06 02:11:30;;;;;;;61.22;41.67;;;;;;;9.23;83.74;98286.00;4985201;28;20030;-75
2024/03/06 02:13:55;;;;;;;63.08;43.92;;;;;;;9.07;84.28;98253.63;4978237;28;20603;-75
2024/03/06 02:16:21;;;;;;;60.65;40.63;;;;;;;9.18;84.16;98275.13;4978723;28;20050;-75
2024/03/06 02:18:53;;;;;;;65.82;43.40;;;;;;;9.15;83.61;98266.72;4976556;28;20065;-75
2024/03/06 02:21:23;;;;;;;60.97;41.97;;;;;;;9.22;84.14;98270.13;4978366;28;20043;-75
2024/03/06 02:23:48;;;;;;;65.93;43.97;;;;;;;9.19;84.17;98276.78;4978904;28;20026;-75
2024/03/06 02:26:14;;;;;;;62.35;43.33;;;;;;;9.17;84.20;98264.63;4976784;28;20038;-75
2024/03/06 02:28:39;;;;;;;57.80;40.70;;;;;;;9.10;84.19;98248.63;4978064;28;20026;-75
2024/03/06 02:31:06;;;;;;;63.90;43.88;;;;;;;9.09;83.98;98251.53;4984714;28;20409;-75
2024/03/06 02:33:34;;;;;;;64.40;43.20;;;;;;;9.16;84.00;98252.22;4983296;28;20022;-75
2024/03/06 02:35:59;;;;;;;67.13;44.97;;;;;;;9.17;84.08;98265.41;4977549;28;20035;-75
2024/03/06 02:38:25;;;;;;;65.57;45.00;;;;;;;9.19;83.77;98263.34;4986333;28;20393;-75
2024/03/06 02:40:50;;;;;;;66.10;43.53;;;;;;;9.05;84.19;98245.81;4980375;28;20069;-74
2024/03/06 02:43:15;;;;;;;73.28;46.15;;;;;;;9.13;83.66;98258.06;4968413;28;20446;-76
2024/03/06 02:45:41;;;;;;;67.22;43.97;;;;;;;9.12;83.97;98254.56;4980873;28;20406;-74
2024/03/06 02:48:06;;;;;;;60.47;41.13;;;;;;;9.10;84.02;98248.63;4968070;28;20042;-74
2024/03/06 02:50:32;;;;;;;68.47;42.90;;;;;;;9.10;83.81;98253.16;4991300;28;20121;-74
2024/03/06 02:52:57;;;;;;;61.58;43.03;;;;;;;9.06;83.98;98242.06;4957942;28;20545;-74
2024/03/06 02:55:24;;;;;;;66.15;42.05;;;;;;;9.05;83.80;98245.81;4980659;28;20140;-75
2024/03/06 02:57:50;;;;;;;62.45;41.70;;;;;;;9.15;83.82;98256.78;4986303;28;20076;-75
2024/03/06 03:00:16;;;;;;;63.08;40.80;;;;;;;9.10;83.71;98248.63;4990768;28;20042;-75
2024/03/06 03:02:41;;;;;;;66.05;43.03;;;;;;;9.05;84.08;98245.81;4991111;28;20026;-75
2024/03/06 03:05:08;;;;;;;63.10;41.63;;;;;;;8.93;84.03;98231.56;4975968;28;20034;-75
2024/03/06 03:07:33;;;;;;;71.35;45.05;;;;;;;8.91;84.20;98239.03;4978054;28;20026;-74
2024/03/06 03:09:58;;;;;;;67.55;45.03;;;;;;;8.93;84.39;98247.66;4987696;28;20037;-75
2024/03/06 03:12:24;;;;;;;67.93;43.75;;;;;;;8.94;84.36;98238.53;4977605;28;20117;-75
2024/03/06 03:14:49;;;;;;;68.57;45.22;;;;;;;8.95;84.58;98234.81;4979325;28;20049;-75
2024/03/06 03:17:15;;;;;;;64.03;42.35;;;;;;;8.92;84.58;98241.47;4975107;28;20028;-75
2024/03/06 03:19:40;;;;;;;71.97;45.67;;;;;;;8.89;84.55;98233.06;4968696;28;20038;-75
2024/03/06 03:22:06;;;;;;;70.47;45.95;;;;;;;8.86;85.11;98244.28;4992600;28;20057;-75
2024/03/06 03:24:31;;;;;;;71.75;45.97;;;;;;;8.92;84.39;98246.00;5000824;28;20041;-76
2024/03/06 03:26:56;;;;;;;62.28;43.60;;;;;;;8.81;85.01;98236.09;4968312;28;20033;-76
2024/03/06 03:29:22;;;;;;;64.88;44.05;;;;;;;8.73;84.98;98228.38;4971059;28;20030;-75
2024/03/06 03:31:48;;;;;;;67.30;43.97;;;;;;;8.79;84.50;98247.06;4963817;28;20027;-76
2024/03/06 03:34:14;;;;;;;68.15;45.92;;;;;;;8.96;84.58;98268.69;4986644;28;20080;-76
2024/03/06 03:36:41;;;;;;;71.20;47.30;;;;;;;8.92;85.29;98268.31;4992804;28;20385;-75
2024/03/06 03:39:08;;;;;;;66.78;45.08;;;;;;;8.89;85.48;98257.25;4972122;28;20039;-75
2024/03/06 03:41:33;;;;;;;69.57;46.83;;;;;;;8.93;85.14;98259.22;4986114;28;20441;-75
2024/03/06 03:43:59;;;;;;;70.32;45.00;;;;;;;8.85;85.18;98250.69;4994407;28;20039;-74
2024/03/06 03:46:24;;;;;;;72.85;47.70;;;;;;;8.84;85.27;98249.06;4968734;28;20022;-76
2024/03/06 03:48:49;;;;;;;75.22;47.72;;;;;;;8.79;85.58;98246.25;4988114;28;20034;-75
2024/03/06 03:51:15;;;;;;;66.88;43.70;;;;;;;8.90;84.95;98262.38;4970343;28;20015;-75
2024/03/06 03:53:42;;;;;;;65.78;44.42;;;;;;;8.93;84.98;98263.78;4970489;28;20066;-76
2024/03/06 03:56:09;;;;;;;69.05;43.80;;;;;;;8.79;85.34;98246.25;4990211;28;20143;-76
2024/03/06 03:58:49;;;;;;;67.00;43.65;;;;;;;8.74;85.22;98238.88;5002677;28;20497;-76
2024/03/06 04:01:17;;;;;;;68.95;43.88;;;;;;;8.33;85.36;98164.59;4983072;28;20484;-76
2024/03/06 04:03:44;;;;;;;66.82;42.80;;;;;;;8.68;85.06;98225.56;4994645;28;20018;-76
2024/03/06 04:06:10;;;;;;;69.05;42.97;;;;;;;8.76;85.29;98230.59;4974209;28;20042;-75
2024/03/06 04:08:35;;;;;;;69.60;42.30;;;;;;;8.81;84.93;98249.50;4963483;28;20054;-76
2024/03/06 04:11:01;;;;;;;67.82;42.78;;;;;;;8.77;84.52;98253.72;4966431;28;20035;-75
2024/03/06 04:13:26;;;;;;;63.25;41.38;;;;;;;8.61;85.37;98232.91;4997195;28;20076;-75
2024/03/06 04:15:51;;;;;;;68.85;42.53;;;;;;;8.75;85.36;98271.94;4988599;28;20034;-76
2024/03/06 04:18:17;;;;;;;66.55;41.47;;;;;;;8.66;85.29;98251.84;4962893;28;20019;-76
2024/03/06 04:20:42;;;;;;;66.50;42.22;;;;;;;8.80;84.95;98263.97;5006009;28;20034;-77
2024/03/06 04:23:07;;;;;;;64.43;41.25;;;;;;;8.80;85.28;98269.34;4970296;28;20030;-75
2024/03/06 04:25:33;;;;;;;73.88;44.92;;;;;;;8.79;85.41;98268.56;4983144;28;20387;-75
2024/03/06 04:27:58;;;;;;;75.80;45.08;;;;;;;8.73;85.91;98249.84;4999682;28;20022;-74
2024/03/06 04:30:24;;;;;;;76.82;43.35;;;;;;;8.80;85.31;98261.28;4992756;28;20073;-75
2024/03/06 04:32:50;;;;;;;73.63;44.80;;;;;;;8.82;85.67;98267.28;4960164;28;20438;-75
2024/03/06 04:35:15;;;;;;;73.55;45.45;;;;;;;8.75;85.75;98267.34;4976938;28;20093;-74
2024/03/06 04:37:41;;;;;;;74.07;45.40;;;;;;;8.76;85.69;98273.56;4977810;28;20027;-74
2024/03/06 04:40:07;;;;;;;82.78;46.95;;;;;;;8.86;85.83;98285.38;4983741;28;20093;-75
2024/03/06 04:42:36;;;;;;;79.10;45.95;;;;;;;8.84;85.86;98286.66;4991167;28;20057;-75
2024/03/06 04:45:12;;;;;;;75.95;45.85;;;;;;;8.85;85.24;98290.97;4987307;28;20076;-75
2024/03/06 04:47:37;;;;;;;81.53;47.08;;;;;;;8.74;85.48;98281.03;4982158;28;20043;-76
2024/03/06 04:50:03;;;;;;;84.40;47.90;;;;;;;8.86;85.71;98301.50;4981127;28;20042;-75
2024/03/06 04:52:28;;;;;;;75.13;44.88;;;;;;;8.91;86.12;98303.47;4998646;28;20044;-74
2024/03/06 04:54:54;;;;;;;82.70;46.75;;;;;;;8.87;85.77;98280.81;4977450;28;20029;-74
2024/03/06 04:57:19;;;;;;;82.97;46.38;;;;;;;8.85;85.37;98277.53;4961446;28;20133;-74
2024/03/06 04:59:44;;;;;;;78.43;44.95;;;;;;;8.87;85.26;98275.44;5004533;28;20073;-75
2024/03/06 05:02:10;;;;;;;78.60;45.72;;;;;;;8.86;85.56;98289.94;4967697;28;20045;-76
2024/03/06 05:04:36;;;;;;;77.78;44.58;;;;;;;8.93;85.21;98302.19;4997026;28;20033;-75
2024/03/06 05:07:02;;;;;;;72.88;43.10;;;;;;;8.69;85.39;98272.84;4968908;28;20056;-76
2024/03/06 05:09:27;;;;;;;72.72;45.00;;;;;;;8.86;85.58;98306.03;4974249;28;20101;-75
2024/03/06 05:11:52;;;;;;;78.20;43.90;;;;;;;8.94;85.08;98319.94;4985559;28;20120;-76
2024/03/06 05:14:18;;;;;;;75.30;43.33;;;;;;;8.87;85.57;98308.47;4979153;28;20070;-75
2024/03/06 05:16:43;;;;;;;76.45;43.05;;;;;;;8.92;84.85;98321.22;4969666;28;20061;-75
2024/03/06 05:19:10;;;;;;;77.65;43.85;;;;;;;8.80;84.98;98315.00;4973259;28;20029;-76
2024/03/06 05:21:36;;;;;;;74.93;42.47;;;;;;;8.74;85.16;98297.13;4970144;28;20074;-75
2024/03/06 05:24:01;;;;;;;74.18;42.65;;;;;;;8.77;84.78;98319.00;4999617;28;20057;-75
2024/03/06 05:26:27;;;;;;;86.82;46.72;;;;;;;8.77;84.77;98323.53;5003158;28;20049;-74
2024/03/06 05:28:52;;;;;;;87.30;48.00;;;;;;;8.70;84.89;98322.81;4970232;28;20083;-75
2024/03/06 05:31:19;;;;;;;84.55;46.88;;;;;;;8.70;85.51;98322.81;4974021;28;20038;-75
2024/03/06 05:33:47;;;;;;;76.35;43.80;;;;;;;8.71;85.27;98327.13;4986081;28;20391;-75
2024/03/06 05:36:15;;;;;;;94.22;48.90;;;;;;;8.68;85.04;98336.44;4974693;28;20096;-76
2024/03/06 05:38:41;;;;;;;72.45;42.90;;;;;;;8.77;85.39;98350.38;4987247;28;20138;-75
2024/03/06 05:41:08;;;;;;;69.47;41.65;;;;;;;8.76;84.81;98354.09;4959249;28;20045;-76
2024/03/06 05:43:33;;;;;;;77.28;43.58;;;;;;;8.67;84.99;98336.69;5004274;28;20025;-76
2024/03/06 05:45:58;;;;;;;79.18;43.45;;;;;;;8.65;84.75;98353.03;5006889;28;20033;-76
2024/03/06 05:48:24;;;;;;;69.57;42.35;;;;;;;8.54;84.89;98336.88;4983511;28;20394;-76
2024/03/06 05:50:49;;;;;;;86.95;46.75;;;;;;;8.45;85.31;98328.31;4974857;28;20042;-75
2024/03/06 05:53:15;;;;;;;78.13;43.47;;;;;;;8.55;85.06;98343.88;4993165;28;20018;-76
2024/03/06 05:55:40;;;;;;;87.28;47.47;;;;;;;8.44;85.27;98325.88;4975577;28;20026;-75
2024/03/06 05:58:07;;;;;;;86.57;47.40;;;;;;;8.49;84.65;98347.47;4993999;28;20532;-75
2024/03/06 06:00:33;;;;;;;79.93;45.35;;;;;;;8.54;84.38;98356.47;4971100;28;20438;-75
2024/03/06 06:02:58;;;;;;;76.22;43.13;;;;;;;8.67;85.28;98379.63;5002283;28;20022;-74
2024/03/06 06:05:24;;;;;;;74.50;43.65;;;;;;;8.63;84.50;98365.03;5007529;28;20045;-75
2024/03/06 06:07:50;;;;;;;69.47;42.72;;;;;;;8.71;84.54;98383.50;4989207;28;20025;-76
2024/03/06 06:10:15;;;;;;;77.60;43.60;;;;;;;8.59;85.12;98369.22;4960633;28;20041;-75
2024/03/06 06:12:41;;;;;;;78.30;44.08;;;;;;;8.55;84.56;98368.84;4988866;28;20030;-75
2024/03/06 06:15:07;;;;;;;77.38;42.80;;;;;;;8.57;84.85;98382.03;4968053;28;20137;-75
2024/03/06 06:17:33;;;;;;;68.20;39.30;;;;;;;8.59;85.19;98394.19;4988543;28;20029;-75
2024/03/06 06:19:59;;;;;;;78.90;42.38;;;;;;;8.54;84.88;98385.19;4975448;28;20362;-75
2024/03/06 06:22:27;;;;;;;86.38;45.38;;;;;;;8.65;84.60;98401.34;5007228;28;20505;-75
2024/03/06 06:24:52;;;;;;;73.95;42.92;;;;;;;8.55;85.01;98389.50;4995119;28;20062;-75
2024/03/06 06:27:18;;;;;;;73.72;42.78;;;;;;;8.43;84.87;98364.47;4989913;28;20061;-75
2024/03/06 06:29:43;;;;;;;71.82;41.20;;;;;;;8.51;84.74;98377.59;5000684;28;20041;-75
2024/03/06 06:32:08;;;;;;;71.30;41.00;;;;;;;8.60;85.42;98389.66;4988975;28;20040;-75
2024/03/06 06:34:34;;;;;;;70.78;39.60;;;;;;;8.67;85.21;98403.81;5006386;28;20512;-76
2024/03/06 06:36:59;;;;;;;75.07;41.90;;;;;;;8.81;85.17;98410.63;4990023;28;20029;-78
2024/03/06 06:39:25;;;;;;;71.80;40.08;;;;;;;8.73;85.44;98411.75;4962514;28;20041;-75
2024/03/06 06:41:51;;;;;;;65.28;37.83;;;;;;;8.84;84.98;98421.75;4973718;28;20105;-76
2024/03/06 06:44:16;;;;;;;58.33;36.40;;;;;;;8.74;85.17;98405.34;4989978;28;20034;-76
2024/03/06 06:46:42;;;;;;;60.80;37.17;;;;;;;8.75;85.16;98406.97;4975917;28;20108;-76
2024/03/06 06:49:08;;;;;;;66.05;38.63;;;;;;;8.94;85.03;98421.19;4962037;28;20034;-76
2024/03/06 06:51:35;;;;;;;67.25;39.22;;;;;;;8.96;85.10;98424.47;4974254;28;20418;-76
2024/03/06 06:54:01;;;;;;;58.33;36.47;;;;;;;8.98;84.53;98417.00;4989915;28;20046;-76
2024/03/06 06:56:27;;;;;;;50.92;31.83;;;;;;;9.11;84.63;98432.91;5003989;28;20030;-76
2024/03/06 06:58:53;;;;;;;62.53;35.92;;;;;;;9.05;84.23;98426.59;4975852;28;20057;-76
2024/03/06 07:01:19;;;;;;;43.70;29.05;;;;;;;8.99;84.23;98422.13;5003294;28;20401;-76
2024/03/06 07:03:45;;;;;;;45.30;30.08;;;;;;;9.09;84.25;98439.56;5006488;28;20120;-75
2024/03/06 07:06:10;;;;;;;47.28;30.95;;;;;;;9.02;83.74;98423.56;4988131;28;20128;-75
2024/03/06 07:08:37;;;;;;;50.85;31.65;;;;;;;9.13;83.62;98433.50;4978172;28;20034;-76
2024/03/06 07:11:02;;;;;;;44.33;30.20;;;;;;;8.99;83.45;98406.03;4991909;28;20057;-77
2024/03/06 07:13:28;;;;;;;44.35;29.38;;;;;;;9.16;83.28;98435.75;4993516;28;20049;-76
2024/03/06 07:15:53;;;;;;;42.17;27.80;;;;;;;9.16;83.20;98432.22;4963881;28;20414;-76
2024/03/06 07:18:18;;;;;;;40.50;28.15;;;;;;;9.14;82.90;98415.53;4961333;28;20513;-76
2024/03/06 07:20:44;;;;;;;44.38;28.58;;;;;;;9.27;82.25;98434.94;4988562;28;20032;-76
2024/03/06 07:23:09;;;;;;;41.00;28.35;;;;;;;9.22;82.46;98424.06;4960574;28;20084;-75
2024/03/06 07:25:34;;;;;;;46.47;29.90;;;;;;;9.27;82.96;98424.19;5006145;28;20518;-78
2024/03/06 07:28:00;;;;;;;43.35;29.25;;;;;;;9.43;82.09;98442.34;4960502;28;20042;-75
2024/03/06 07:30:27;;;;;;;41.78;27.63;;;;;;;9.38;82.13;98428.78;4982318;28;20048;-76
2024/03/06 07:32:52;;;;;;;35.65;25.65;;;;;;;9.51;81.50;98439.34;4959836;28;20030;-76
2024/03/06 07:35:18;;;;;;;39.38;27.33;;;;;;;9.54;80.91;98444.25;5009198;28;20393;-76
2024/03/06 07:37:44;;;;;;;36.92;25.58;;;;;;;9.54;80.82;98455.00;4993316;28;20046;-76
2024/03/06 07:40:10;;;;;;;37.05;25.42;;;;;;;9.54;79.54;98438.88;4988735;28;20041;-76
2024/03/06 07:42:36;;;;;;;37.83;26.20;;;;;;;9.46;79.42;98431.13;4986738;28;20037;-76
2024/03/06 07:45:01;;;;;;;35.38;25.13;;;;;;;9.45;78.99;98437.56;5004253;28;20017;-76
2024/03/06 07:47:27;;;;;;;35.17;24.67;;;;;;;9.38;79.24;98442.22;4973412;28;20401;-76
2024/03/06 07:49:52;;;;;;;35.65;25.35;;;;;;;9.45;78.72;98456.38;4984019;28;20040;-76
2024/03/06 07:52:17;;;;;;;39.65;26.98;;;;;;;9.50;78.44;98467.25;4976074;28;20041;-76
2024/03/06 07:54:43;;;;;;;41.03;26.88;;;;;;;9.43;77.75;98450.41;4982662;28;20504;-76
2024/03/06 07:57:09;;;;;;;40.28;26.98;;;;;;;9.47;77.23;98467.75;4988003;28;20405;-75
2024/03/06 07:59:35;;;;;;;42.25;28.25;;;;;;;9.41;77.20;98465.94;5007700;28;20037;-76
2024/03/06 08:02:01;;;;;;;40.78;28.00;;;;;;;9.30;76.49;98464.06;4991718;28;20038;-75
2024/03/06 08:04:27;;;;;;;39.03;28.33;;;;;;;9.21;76.66;98460.06;4980016;28;20025;-76
2024/03/06 08:06:52;;;;;;;38.17;27.23;;;;;;;9.24;77.38;98481.09;4960631;28;20041;-76
2024/03/06 08:09:19;;;;;;;40.30;28.60;;;;;;;9.24;76.42;98480.28;4990015;28;20034;-75
2024/03/06 08:11:45;;;;;;;41.60;28.33;;;;;;;9.23;76.97;98484.00;4995057;28;20124;-75
2024/03/06 08:14:10;;;;;;;38.83;27.15;;;;;;;9.20;76.10;98457.59;4970824;28;20552;-76
2024/03/06 08:16:37;;;;;;;41.28;27.67;;;;;;;9.31;77.04;98481.81;4976959;28;20035;-76
2024/03/06 08:19:02;;;;;;;39.88;27.67;;;;;;;9.37;76.79;98497.03;5003645;28;20022;-76
2024/03/06 08:21:28;;;;;;;39.63;26.92;;;;;;;9.37;76.31;98486.28;4992607;28;20037;-76
2024/03/06 08:23:53;;;;;;;36.85;25.98;;;;;;;8.87;76.51;98404.34;4970303;28;20052;-76
2024/03/06 08:26:18;;;;;;;35.80;25.38;;;;;;;9.38;76.02;98497.88;5008666;28;20517;-75
2024/03/06 08:28:44;;;;;;;38.33;27.13;;;;;;;9.38;76.07;98489.81;4972248;28;20053;-76
2024/03/06 08:31:09;;;;;;;35.25;26.30;;;;;;;9.28;76.30;98471.53;4985219;28;20395;-75
2024/03/06 08:33:34;;;;;;;36.50;26.33;;;;;;;9.32;76.12;98482.63;4975069;28;20026;-76
2024/03/06 08:36:00;;;;;;;36.53;27.05;;;;;;;9.37;75.29;98507.78;4998920;28;20121;-77
2024/03/06 08:38:25;;;;;;;39.80;27.50;;;;;;;9.28;75.80;98498.41;5009091;28;20061;-76
2024/03/06 08:40:51;;;;;;;35.58;26.83;;;;;;;9.27;75.58;98496.75;4984347;28;20034;-75
2024/03/06 08:43:16;;;;;;;39.42;27.45;;;;;;;9.42;75.56;98509.78;4977292;28;20037;-76
2024/03/06 08:45:42;;;;;;;35.17;26.15;;;;;;;9.55;75.90;98521.16;4972751;28;20565;-76
2024/03/06 08:48:08;;;;;;;35.88;26.48;;;;;;;9.61;75.36;98530.97;4970707;28;20044;-76
2024/03/06 08:50:34;;;;;;;36.10;26.05;;;;;;;9.55;75.21;98510.41;4972950;28;20042;-76
2024/03/06 08:53:01;;;;;;;33.80;24.80;;;;;;;9.66;74.44;98522.25;4986651;28;20108;-76
2024/03/06 08:55:28;;;;;;;33.42;24.02;;;;;;;9.55;74.59;98491.59;4984181;28;20041;-76
2024/03/06 08:57:53;;;;;;;33.90;24.08;;;;;;;9.89;74.02;98526.84;4981486;28;20026;-76
2024/03/06 09:00:19;;;;;;;32.15;23.75;;;;;;;9.87;73.55;98512.81;4986165;28;20050;-76
2024/03/06 09:02:44;;;;;;;31.48;23.33;;;;;;;9.99;73.11;98527.09;4970826;28;20440;-76
2024/03/06 09:05:12;;;;;;;32.90;23.67;;;;;;;9.99;72.82;98521.72;4969011;28;20065;-76
2024/03/06 09:07:40;;;;;;;32.70;22.40;;;;;;;10.07;72.31;98535.66;4982562;28;20474;-76
2024/03/06 09:10:09;;;;;;;31.52;22.33;;;;;;;10.06;71.99;98530.50;4971871;28;20034;-76
2024/03/06 09:12:35;;;;;;;31.38;21.52;;;;;;;10.22;71.15;98537.91;5005759;28;20413;-76
2024/03/06 09:15:01;;;;;;;29.83;21.60;;;;;;;10.17;70.37;98532.41;4983519;28;20038;-76
2024/03/06 09:17:27;;;;;;;29.40;22.40;;;;;;;10.25;71.17;98537.44;4959373;28;20022;-76
2024/03/06 09:19:53;;;;;;;28.67;21.95;;;;;;;10.29;70.35;98533.25;4991758;28;20026;-76
2024/03/06 09:22:19;;;;;;;30.67;22.20;;;;;;;10.21;70.34;98520.13;4993420;28;20619;-77
2024/03/06 09:24:44;;;;;;;30.90;22.65;;;;;;;10.27;70.60;98524.56;4959341;28;20034;-76
2024/03/06 09:27:10;;;;;;;30.70;23.00;;;;;;;10.20;70.68;98531.91;4996632;28;20101;-76
2024/03/06 09:29:35;;;;;;;32.10;22.23;;;;;;;10.18;69.55;98532.16;4992420;28;20477;-77
2024/03/06 09:32:01;;;;;;;28.00;21.50;;;;;;;10.29;69.80;98550.19;4986324;28;20045;-77
2024/03/06 09:34:26;;;;;;;29.30;21.45;;;;;;;10.16;69.53;98522.69;4957919;28;20084;-77
2024/03/06 09:36:51;;;;;;;29.13;21.45;;;;;;;10.19;69.60;98543.75;4986520;28;20391;-77
2024/03/06 09:39:20;;;;;;;28.45;21.35;;;;;;;10.34;69.06;98554.88;4985425;28;20034;-76
2024/03/06 09:41:52;;;;;;;29.23;21.50;;;;;;;10.43;69.34;98555.34;4986049;28;20025;-75
2024/03/06 09:44:18;;;;;;;31.17;22.17;;;;;;;10.34;69.21;98538.72;5001659;28;20032;-76
2024/03/06 09:46:44;;;;;;;31.05;23.77;;;;;;;10.46;69.04;98550.31;5004449;28;20385;-76
2024/03/06 09:49:11;;;;;;;33.88;24.25;;;;;;;10.36;69.20;98560.88;4959242;28;20038;-76
2024/03/06 09:51:38;;;;;;;33.95;24.58;;;;;;;10.38;69.20;98534.53;4972902;28;20022;-76
2024/03/06 09:54:05;;;;;;;34.55;24.50;;;;;;;10.42;69.28;98538.38;5010174;28;20172;-76
2024/03/06 09:56:32;;;;;;;30.98;24.05;;;;;;;10.40;69.58;98543.19;4982014;28;20027;-77
2024/03/06 09:58:57;;;;;;;30.27;22.85;;;;;;;10.42;69.48;98549.16;4987540;28;20087;-77
2024/03/06 10:01:24;;;;;;;30.02;23.23;;;;;;;10.47;69.10;98556.50;4985605;28;20030;-77
2024/03/06 10:03:50;;;;;;;29.95;22.98;;;;;;;10.43;69.89;98548.91;5008380;28;20034;-77
2024/03/06 10:06:16;;;;;;;31.40;23.75;;;;;;;10.41;69.83;98542.09;4967422;28;20022;-77
2024/03/06 10:08:43;;;;;;;30.35;23.63;;;;;;;10.48;68.85;98564.34;4970228;28;20040;-77
2024/03/06 10:11:08;;;;;;;31.55;22.88;;;;;;;10.43;68.77;98551.59;5007485;28;20026;-77
2024/03/06 10:13:34;;;;;;;28.67;22.00;;;;;;;10.54;68.44;98574.19;5002464;28;20042;-77
2024/03/06 10:16:04;;;;;;;27.58;20.65;;;;;;;10.46;68.37;98550.31;4983569;28;20030;-77
2024/03/06 10:18:30;;;;;;;26.80;20.63;;;;;;;10.38;68.90;98567.63;4983793;23;20052;-77
2024/03/06 10:20:56;;;;;;;27.67;20.30;;;;;;;10.37;68.23;98584.03;5005398;28;20041;-77
2024/03/06 10:23:22;;;;;;;28.83;21.20;;;;;;;10.29;69.09;98565.53;5001138;28;20038;-76
2024/03/06 10:25:52;;;;;;;27.30;20.08;;;;;;;10.57;68.39;98595.25;4990949;28;20065;-76
2024/03/06 10:28:18;;;;;;;29.45;20.85;;;;;;;10.60;68.61;98577.81;4987774;28;20038;-77
2024/03/06 10:30:44;;;;;;;26.73;19.58;;;;;;;10.53;67.62;98583.31;4993018;28;20026;-77
2024/03/06 10:33:10;;;;;;;26.77;20.02;;;;;;;10.47;67.46;98589.66;4990964;28;20452;-76
2024/03/06 10:35:37;;;;;;;26.58;19.98;;;;;;;10.43;67.43;98583.09;4990854;28;20034;-77
2024/03/06 10:38:04;;;;;;;22.95;18.00;;;;;;;10.48;67.35;98590.47;4987563;28;20089;-77
2024/03/06 10:40:36;;;;;;;27.02;19.35;;;;;;;10.45;67.50;98585.56;4972062;28;20118;-76
2024/03/06 10:43:05;;;;;;;24.10;18.20;;;;;;;10.60;67.15;98594.78;4985626;28;20093;-75
2024/03/06 10:45:48;;;;;;;24.23;18.50;;;;;;;10.72;66.85;98609.09;4985709;28;20023;-75
2024/03/06 10:48:14;;;;;;;23.33;17.55;;;;;;;10.85;66.44;98598.03;5007081;28;20581;-75
2024/03/06 10:50:43;;;;;;;22.48;17.27;;;;;;;10.86;65.17;98588.94;4973883;28;20101;-75
2024/03/06 10:53:13;;;;;;;24.05;16.98;;;;;;;10.78;65.66;98570.41;4989838;28;20113;-75
2024/03/06 10:55:39;;;;;;;20.55;16.45;;;;;;;11.00;65.41;98600.25;5007282;28;20456;-75
2024/03/06 10:58:08;;;;;;;26.77;17.40;;;;;;;10.92;64.68;98587.97;4988721;28;20019;-76
2024/03/06 11:00:37;;;;;;;22.25;16.95;;;;;;;10.88;64.75;98586.81;4987561;28;20038;-75
2024/03/06 11:03:08;;;;;;;21.48;16.42;;;;;;;11.02;64.63;98603.53;4990603;28;20097;-75
2024/03/06 11:05:39;;;;;;;21.15;15.65;;;;;;;11.02;64.64;98572.03;4992080;28;20125;-75
2024/03/06 11:08:07;;;;;;;20.58;16.02;;;;;;;11.13;64.58;98584.63;4992707;28;20513;-76
2024/03/06 11:10:33;;;;;;;22.63;16.67;;;;;;;10.97;64.07;98571.91;4993143;28;20023;-75
2024/03/06 11:12:59;;;;;;;22.42;16.05;;;;;;;11.18;64.29;98599.31;4987152;28;20035;-75
2024/03/06 11:15:24;;;;;;;23.27;17.02;;;;;;;11.19;63.41;98598.22;4987964;28;20041;-76
2024/03/06 11:17:50;;;;;;;22.17;16.23;;;;;;;11.09;64.08;98594.28;4954634;28;20494;-76